sensor_id;sensor_type;location;lat;lon;timestamp;pressure;altitude;pressure_sealevel;temperature;humidity
12626;BME280;6378;42.684;23.372;2023-04-06T00:00:59;94842.91;;;1.04;100.00
12626;BME280;6378;42.684;23.372;2023-04-06T00:03:25;94839.47;;;1.04;100.00
12626;BME280;6378;42.684;23.372;2023-04-06T00:05:50;94833.91;;;1.05;100.00
12626;BME280;6378;42.684;23.372;2023-04-06T00:08:16;94793.41;;;0.86;100.00
12626;BME280;6378;42.684;23.372;2023-04-06T00:10:42;94806.81;;;1.08;100.00
12626;BME280;6378;42.684;23.372;2023-04-06T00:13:07;94821.19;;;1.21;100.00
12626;BME280;6378;42.684;23.372;2023-04-06T00:15:33;94811.06;;;1.23;100.00
12626;BME280;6378;42.684;23.372;2023-04-06T00:17:59;94776.94;;;1.03;100.00
12626;BME280;6378;42.684;23.372;2023-04-06T00:20:24;94813.94;;;1.26;100.00
12626;BME280;6378;42.684;23.372;2023-04-06T00:22:50;94810.78;;;1.24;100.00
12626;BME280;6378;42.684;23.372;2023-04-06T00:25:17;94809.19;;;1.23;100.00
12626;BME280;6378;42.684;23.372;2023-04-06T00:27:42;94806.66;;;1.32;100.00
12626;BME280;6378;42.684;23.372;2023-04-06T00:30:08;94778.47;;;1.22;100.00
12626;BME280;6378;42.684;23.372;2023-04-06T00:32:34;94798.41;;;1.34;100.00
12626;BME280;6378;42.684;23.372;2023-04-06T00:35:02;94805.81;;;1.37;100.00
12626;BME280;6378;42.684;23.372;2023-04-06T00:37:28;94799.41;;;1.38;100.00
12626;BME280;6378;42.684;23.372;2023-04-06T00:39:54;94798.41;;;1.34;100.00
12626;BME280;6378;42.684;23.372;2023-04-06T00:42:21;94798.13;;;1.35;100.00
12626;BME280;6378;42.684;23.372;2023-04-06T00:44:55;94797.84;;;1.37;100.00
12626;BME280;6378;42.684;23.372;2023-04-06T00:47:21;94797.75;;;1.42;100.00
12626;BME280;6378;42.684;23.372;2023-04-06T00:49:48;94790.66;;;1.37;100.00
12626;BME280;6378;42.684;23.372;2023-04-06T00:52:13;94792.94;;;1.44;100.00
12626;BME280;6378;42.684;23.372;2023-04-06T00:54:39;94788.50;;;1.39;100.00
12626;BME280;6378;42.684;23.372;2023-04-06T00:57:05;94790.38;;;1.39;100.00
12626;BME280;6378;42.684;23.372;2023-04-06T00:59:31;94781.94;;;1.37;100.00
12626;BME280;6378;42.684;23.372;2023-04-06T01:01:56;94782.13;;;1.40;100.00
12626;BME280;6378;42.684;23.372;2023-04-06T01:04:22;94776.22;;;1.29;100.00
12626;BME280;6378;42.684;23.372;2023-04-06T01:06:48;94784.69;;;1.45;100.00
12626;BME280;6378;42.684;23.372;2023-04-06T01:09:14;94782.13;;;1.54;100.00
12626;BME280;6378;42.684;23.372;2023-04-06T01:11:40;94776.44;;;1.60;100.00
12626;BME280;6378;42.684;23.372;2023-04-06T01:14:05;94783.81;;;1.63;100.00
12626;BME280;6378;42.684;23.372;2023-04-06T01:16:31;94775.16;;;1.71;100.00
12626;BME280;6378;42.684;23.372;2023-04-06T01:18:57;94765.44;;;1.53;100.00
12626;BME280;6378;42.684;23.372;2023-04-06T01:21:22;94762.69;;;1.58;100.00
12626;BME280;6378;42.684;23.372;2023-04-06T01:23:48;94777.25;;;1.61;100.00
12626;BME280;6378;42.684;23.372;2023-04-06T01:26:13;94766.31;;;1.49;100.00
12626;BME280;6378;42.684;23.372;2023-04-06T01:28:39;94764.28;;;1.46;100.00
12626;BME280;6378;42.684;23.372;2023-04-06T01:31:08;94762.97;;;1.43;100.00
12626;BME280;6378;42.684;23.372;2023-04-06T01:33:34;94761.31;;;1.47;100.00
12626;BME280;6378;42.684;23.372;2023-04-06T01:35:59;94759.34;;;1.53;100.00
12626;BME280;6378;42.684;23.372;2023-04-06T01:38:25;94751.59;;;1.56;100.00
12626;BME280;6378;42.684;23.372;2023-04-06T01:40:52;94746.00;;;1.44;100.00
12626;BME280;6378;42.684;23.372;2023-04-06T01:43:18;94747.84;;;1.57;100.00
12626;BME280;6378;42.684;23.372;2023-04-06T01:45:44;94751.28;;;1.58;100.00
12626;BME280;6378;42.684;23.372;2023-04-06T01:48:09;94749.13;;;1.60;100.00
12626;BME280;6378;42.684;23.372;2023-04-06T01:50:35;94732.53;;;1.54;100.00
12626;BME280;6378;42.684;23.372;2023-04-06T01:53:00;94744.03;;;1.63;100.00
12626;BME280;6378;42.684;23.372;2023-04-06T01:55:26;94746.19;;;1.61;100.00
12626;BME280;6378;42.684;23.372;2023-04-06T01:57:51;94741.28;;;1.68;100.00
12626;BME280;6378;42.684;23.372;2023-04-06T02:00:17;94728.63;;;1.65;100.00
12626;BME280;6378;42.684;23.372;2023-04-06T02:02:42;94722.22;;;1.53;100.00
12626;BME280;6378;42.684;23.372;2023-04-06T02:05:08;94734.50;;;1.62;100.00
12626;BME280;6378;42.684;23.372;2023-04-06T02:07:33;94707.00;;;1.45;100.00
12626;BME280;6378;42.684;23.372;2023-04-06T02:09:59;94736.16;;;1.72;100.00
12626;BME280;6378;42.684;23.372;2023-04-06T02:12:25;94711.59;;;1.53;100.00
12626;BME280;6378;42.684;23.372;2023-04-06T02:14:50;94737.34;;;1.66;100.00
12626;BME280;6378;42.684;23.372;2023-04-06T02:17:16;94703.75;;;1.48;100.00
12626;BME280;6378;42.684;23.372;2023-04-06T02:19:42;94740.69;;;1.58;100.00
12626;BME280;6378;42.684;23.372;2023-04-06T02:22:08;94726.75;;;1.66;100.00
12626;BME280;6378;42.684;23.372;2023-04-06T02:24:34;94737.13;;;1.76;100.00
12626;BME280;6378;42.684;23.372;2023-04-06T02:27:00;94734.38;;;1.67;100.00
12626;BME280;6378;42.684;23.372;2023-04-06T02:29:26;94727.22;;;1.68;100.00
12626;BME280;6378;42.684;23.372;2023-04-06T02:31:51;94731.44;;;1.69;100.00
12626;BME280;6378;42.684;23.372;2023-04-06T02:34:17;94741.84;;;1.79;100.00
12626;BME280;6378;42.684;23.372;2023-04-06T02:36:46;94735.56;;;1.75;100.00
12626;BME280;6378;42.684;23.372;2023-04-06T02:39:12;94736.47;;;1.70;100.00
12626;BME280;6378;42.684;23.372;2023-04-06T02:41:38;94735.38;;;1.71;100.00
12626;BME280;6378;42.684;23.372;2023-04-06T02:44:05;94736.66;;;1.74;100.00
12626;BME280;6378;42.684;23.372;2023-04-06T02:46:31;94732.81;;;1.80;100.00
12626;BME280;6378;42.684;23.372;2023-04-06T02:48:56;94718.78;;;1.66;100.00
12626;BME280;6378;42.684;23.372;2023-04-06T02:51:22;94743.91;;;1.82;100.00
12626;BME280;6378;42.684;23.372;2023-04-06T02:53:47;94730.34;;;1.84;100.00
12626;BME280;6378;42.684;23.372;2023-04-06T02:56:13;94727.41;;;1.85;100.00
12626;BME280;6378;42.684;23.372;2023-04-06T02:58:38;94733.97;;;1.88;100.00
12626;BME280;6378;42.684;23.372;2023-04-06T03:01:04;94735.38;;;1.85;100.00
12626;BME280;6378;42.684;23.372;2023-04-06T03:03:30;94729.94;;;1.77;100.00
12626;BME280;6378;42.684;23.372;2023-04-06T03:05:55;94727.63;;;1.75;100.00
12626;BME280;6378;42.684;23.372;2023-04-06T03:08:24;94724.00;;;1.71;100.00
12626;BME280;6378;42.684;23.372;2023-04-06T03:10:49;94734.69;;;1.80;100.00
12626;BME280;6378;42.684;23.372;2023-04-06T03:13:15;94724.97;;;1.75;100.00
12626;BME280;6378;42.684;23.372;2023-04-06T03:15:40;94730.44;;;1.79;100.00
12626;BME280;6378;42.684;23.372;2023-04-06T03:18:08;94726.50;;;1.76;100.00
12626;BME280;6378;42.684;23.372;2023-04-06T03:20:33;94726.13;;;1.83;100.00
12626;BME280;6378;42.684;23.372;2023-04-06T03:22:59;94717.69;;;1.81;100.00
12626;BME280;6378;42.684;23.372;2023-04-06T03:25:24;94721.00;;;1.86;100.00
12626;BME280;6378;42.684;23.372;2023-04-06T03:27:50;94726.50;;;1.90;100.00
12626;BME280;6378;42.684;23.372;2023-04-06T03:30:15;94723.06;;;1.89;100.00
12626;BME280;6378;42.684;23.372;2023-04-06T03:32:44;94711.47;;;1.85;100.00
12626;BME280;6378;42.684;23.372;2023-04-06T03:35:10;94719.22;;;1.82;100.00
12626;BME280;6378;42.684;23.372;2023-04-06T03:37:35;94709.09;;;1.97;100.00
12626;BME280;6378;42.684;23.372;2023-04-06T03:40:01;94722.22;;;2.16;100.00
12626;BME280;6378;42.684;23.372;2023-04-06T03:42:27;94717.22;;;2.01;100.00
12626;BME280;6378;42.684;23.372;2023-04-06T03:44:53;94714.91;;;1.99;100.00
12626;BME280;6378;42.684;23.372;2023-04-06T03:47:18;94712.25;;;1.99;100.00
12626;BME280;6378;42.684;23.372;2023-04-06T03:49:44;94687.59;;;1.85;100.00
12626;BME280;6378;42.684;23.372;2023-04-06T03:52:09;94715.94;;;2.12;100.00
12626;BME280;6378;42.684;23.372;2023-04-06T03:54:37;94675.88;;;1.86;100.00
12626;BME280;6378;42.684;23.372;2023-04-06T03:57:03;94717.63;;;2.08;100.00
12626;BME280;6378;42.684;23.372;2023-04-06T03:59:29;94720.28;;;2.08;100.00
12626;BME280;6378;42.684;23.372;2023-04-06T04:01:54;94730.97;;;2.16;100.00
12626;BME280;6378;42.684;23.372;2023-04-06T04:04:20;94721.78;;;2.00;100.00
12626;BME280;6378;42.684;23.372;2023-04-06T04:06:45;94724.72;;;1.99;100.00
12626;BME280;6378;42.684;23.372;2023-04-06T04:09:11;94730.31;;;1.97;100.00
12626;BME280;6378;42.684;23.372;2023-04-06T04:11:36;94726.19;;;1.91;100.00
12626;BME280;6378;42.684;23.372;2023-04-06T04:14:02;94725.91;;;1.93;100.00
12626;BME280;6378;42.684;23.372;2023-04-06T04:16:27;94729.25;;;1.98;100.00
12626;BME280;6378;42.684;23.372;2023-04-06T04:18:53;94726.19;;;2.05;100.00
12626;BME280;6378;42.684;23.372;2023-04-06T04:21:18;94677.38;;;1.79;100.00
12626;BME280;6378;42.684;23.372;2023-04-06T04:23:45;94617.16;;;1.29;100.00
12626;BME280;6378;42.684;23.372;2023-04-06T04:26:10;94727.66;;;1.97;100.00
12626;BME280;6378;42.684;23.372;2023-04-06T04:28:36;94705.28;;;1.90;100.00
12626;BME280;6378;42.684;23.372;2023-04-06T04:31:01;94722.25;;;2.02;100.00
12626;BME280;6378;42.684;23.372;2023-04-06T04:33:26;94723.53;;;2.05;100.00
12626;BME280;6378;42.684;23.372;2023-04-06T04:35:52;94720.88;;;2.05;100.00
12626;BME280;6378;42.684;23.372;2023-04-06T04:38:17;94718.41;;;2.08;100.00
12626;BME280;6378;42.684;23.372;2023-04-06T04:40:43;94716.66;;;2.04;100.00
12626;BME280;6378;42.684;23.372;2023-04-06T04:43:08;94728.81;;;2.18;100.00
12626;BME280;6378;42.684;23.372;2023-04-06T04:45:34;94728.97;;;2.22;100.00
12626;BME280;6378;42.684;23.372;2023-04-06T04:47:59;94725.41;;;2.27;100.00
12626;BME280;6378;42.684;23.372;2023-04-06T04:50:25;94730.69;;;2.40;100.00
12626;BME280;6378;42.684;23.372;2023-04-06T04:52:50;94726.88;;;2.55;100.00
12626;BME280;6378;42.684;23.372;2023-04-06T04:55:16;94721.34;;;2.43;100.00
12626;BME280;6378;42.684;23.372;2023-04-06T04:57:42;94733.53;;;2.44;100.00
12626;BME280;6378;42.684;23.372;2023-04-06T05:00:08;94723.16;;;2.56;100.00
12626;BME280;6378;42.684;23.372;2023-04-06T05:02:33;94722.34;;;2.55;100.00
12626;BME280;6378;42.684;23.372;2023-04-06T05:04:59;94731.47;;;2.41;100.00
12626;BME280;6378;42.684;23.372;2023-04-06T05:07:25;94731.91;;;2.56;100.00
12626;BME280;6378;42.684;23.372;2023-04-06T05:09:50;94723.16;;;2.56;100.00
12626;BME280;6378;42.684;23.372;2023-04-06T05:12:16;94696.16;;;2.40;100.00
12626;BME280;6378;42.684;23.372;2023-04-06T05:14:41;94723.28;;;2.73;100.00
12626;BME280;6378;42.684;23.372;2023-04-06T05:17:07;94738.00;;;2.79;100.00
12626;BME280;6378;42.684;23.372;2023-04-06T05:19:32;94722.53;;;2.81;100.00
12626;BME280;6378;42.684;23.372;2023-04-06T05:21:58;94729.31;;;2.87;100.00
12626;BME280;6378;42.684;23.372;2023-04-06T05:24:23;94733.13;;;2.73;100.00
12626;BME280;6378;42.684;23.372;2023-04-06T05:26:49;94733.91;;;2.73;100.00
12626;BME280;6378;42.684;23.372;2023-04-06T05:29:14;94733.38;;;2.63;100.00
12626;BME280;6378;42.684;23.372;2023-04-06T05:31:40;94727.25;;;2.62;100.00
12626;BME280;6378;42.684;23.372;2023-04-06T05:34:06;94698.66;;;2.59;100.00
12626;BME280;6378;42.684;23.372;2023-04-06T05:36:31;94734.44;;;3.15;100.00
12626;BME280;6378;42.684;23.372;2023-04-06T05:38:57;94725.72;;;2.92;100.00
12626;BME280;6378;42.684;23.372;2023-04-06T05:41:23;94700.28;;;2.46;100.00
12626;BME280;6378;42.684;23.372;2023-04-06T05:43:49;94734.97;;;2.50;100.00
12626;BME280;6378;42.684;23.372;2023-04-06T05:46:15;94710.78;;;2.29;100.00
12626;BME280;6378;42.684;23.372;2023-04-06T05:48:40;94731.47;;;2.41;100.00
12626;BME280;6378;42.684;23.372;2023-04-06T05:51:06;94730.38;;;2.42;100.00
12626;BME280;6378;42.684;23.372;2023-04-06T05:53:32;94736.78;;;2.41;100.00
12626;BME280;6378;42.684;23.372;2023-04-06T05:56:01;94724.34;;;2.50;100.00
12626;BME280;6378;42.684;23.372;2023-04-06T05:58:28;94730.16;;;2.52;100.00
12626;BME280;6378;42.684;23.372;2023-04-06T06:00:57;94720.91;;;2.72;100.00
12626;BME280;6378;42.684;23.372;2023-04-06T06:03:23;94727.00;;;2.72;100.00
12626;BME280;6378;42.684;23.372;2023-04-06T06:05:51;94725.69;;;2.61;100.00
12626;BME280;6378;42.684;23.372;2023-04-06T06:08:20;94735.41;;;2.66;100.00
12626;BME280;6378;42.684;23.372;2023-04-06T06:10:45;94708.91;;;2.52;100.00
12626;BME280;6378;42.684;23.372;2023-04-06T06:13:20;94713.84;;;2.67;100.00
12626;BME280;6378;42.684;23.372;2023-04-06T06:15:51;94723.69;;;2.67;100.00
12626;BME280;6378;42.684;23.372;2023-04-06T06:18:16;94705.03;;;2.58;100.00
12626;BME280;6378;42.684;23.372;2023-04-06T06:20:42;94683.78;;;2.58;100.00
12626;BME280;6378;42.684;23.372;2023-04-06T06:23:07;94717.44;;;2.93;100.00
12626;BME280;6378;42.684;23.372;2023-04-06T06:25:33;94692.56;;;2.89;100.00
12626;BME280;6378;42.684;23.372;2023-04-06T06:27:59;94728.88;;;3.25;100.00
12626;BME280;6378;42.684;23.372;2023-04-06T06:30:24;94723.19;;;3.18;100.00
12626;BME280;6378;42.684;23.372;2023-04-06T06:32:53;94717.00;;;3.31;100.00
12626;BME280;6378;42.684;23.372;2023-04-06T06:35:18;94709.50;;;3.33;100.00
12626;BME280;6378;42.684;23.372;2023-04-06T06:37:44;94723.53;;;3.25;100.00
12626;BME280;6378;42.684;23.372;2023-04-06T06:40:10;94707.94;;;3.32;100.00
12626;BME280;6378;42.684;23.372;2023-04-06T06:42:38;94730.16;;;3.36;100.00
12626;BME280;6378;42.684;23.372;2023-04-06T06:45:04;94716.38;;;3.34;100.00
12626;BME280;6378;42.684;23.372;2023-04-06T06:47:30;94686.59;;;3.15;100.00
12626;BME280;6378;42.684;23.372;2023-04-06T06:49:56;94724.31;;;3.56;100.00
12626;BME280;6378;42.684;23.372;2023-04-06T06:52:21;94723.41;;;3.78;100.00
12626;BME280;6378;42.684;23.372;2023-04-06T06:54:48;94727.72;;;4.05;100.00
12626;BME280;6378;42.684;23.372;2023-04-06T06:57:13;94714.69;;;4.12;100.00
12626;BME280;6378;42.684;23.372;2023-04-06T06:59:39;94713.28;;;4.06;100.00
12626;BME280;6378;42.684;23.372;2023-04-06T07:02:05;94713.63;;;4.39;100.00
12626;BME280;6378;42.684;23.372;2023-04-06T07:04:30;94720.47;;;4.91;100.00
12626;BME280;6378;42.684;23.372;2023-04-06T07:06:56;94722.44;;;5.20;100.00
12626;BME280;6378;42.684;23.372;2023-04-06T07:09:21;94714.50;;;5.49;100.00
12626;BME280;6378;42.684;23.372;2023-04-06T07:11:46;94706.78;;;5.56;95.76
12626;BME280;6378;42.684;23.372;2023-04-06T07:14:15;94702.75;;;5.80;89.76
12626;BME280;6378;42.684;23.372;2023-04-06T07:16:40;94707.41;;;5.91;82.39
12626;BME280;6378;42.684;23.372;2023-04-06T07:19:06;94716.41;;;5.78;81.43
12626;BME280;6378;42.684;23.372;2023-04-06T07:21:32;94702.13;;;5.45;85.17
12626;BME280;6378;42.684;23.372;2023-04-06T07:23:57;94711.19;;;5.90;80.50
12626;BME280;6378;42.684;23.372;2023-04-06T07:26:22;94678.88;;;5.45;79.72
12626;BME280;6378;42.684;23.372;2023-04-06T07:28:48;94711.44;;;5.30;86.72
12626;BME280;6378;42.684;23.372;2023-04-06T07:31:13;94716.72;;;5.77;83.35
12626;BME280;6378;42.684;23.372;2023-04-06T07:33:39;94714.19;;;5.80;81.88
12626;BME280;6378;42.684;23.372;2023-04-06T07:36:05;94711.38;;;6.06;78.41
12626;BME280;6378;42.684;23.372;2023-04-06T07:38:30;94707.28;;;5.79;77.09
12626;BME280;6378;42.684;23.372;2023-04-06T07:40:56;94709.28;;;5.61;79.10
12626;BME280;6378;42.684;23.372;2023-04-06T07:43:21;94608.09;;;4.63;82.26
12626;BME280;6378;42.684;23.372;2023-04-06T07:45:46;94692.88;;;4.87;85.47
12626;BME280;6378;42.684;23.372;2023-04-06T07:48:12;94703.69;;;4.91;87.40
12626;BME280;6378;42.684;23.372;2023-04-06T07:50:37;94716.59;;;5.35;85.37
12626;BME280;6378;42.684;23.372;2023-04-06T07:53:03;94707.63;;;5.40;81.33
12626;BME280;6378;42.684;23.372;2023-04-06T07:55:29;94712.22;;;5.68;80.52
12626;BME280;6378;42.684;23.372;2023-04-06T07:57:54;94678.97;;;5.57;77.20
12626;BME280;6378;42.684;23.372;2023-04-06T08:00:20;94678.78;;;5.62;76.53
12626;BME280;6378;42.684;23.372;2023-04-06T08:02:45;94697.19;;;5.93;76.82
12626;BME280;6378;42.684;23.372;2023-04-06T08:05:11;94706.97;;;6.51;75.67
12626;BME280;6378;42.684;23.372;2023-04-06T08:07:37;94690.63;;;6.86;72.81
12626;BME280;6378;42.684;23.372;2023-04-06T08:10:03;94699.81;;;7.42;70.52
12626;BME280;6378;42.684;23.372;2023-04-06T08:12:28;94703.25;;;7.55;66.48
12626;BME280;6378;42.684;23.372;2023-04-06T08:14:54;94697.22;;;6.88;65.09
12626;BME280;6378;42.684;23.372;2023-04-06T08:17:20;94703.13;;;6.94;66.30
12626;BME280;6378;42.684;23.372;2023-04-06T08:19:45;94700.97;;;6.75;67.28
12626;BME280;6378;42.684;23.372;2023-04-06T08:22:11;94692.34;;;6.70;67.70
12626;BME280;6378;42.684;23.372;2023-04-06T08:24:36;94710.63;;;6.47;64.50
12626;BME280;6378;42.684;23.372;2023-04-06T08:27:02;94708.38;;;6.90;66.95
12626;BME280;6378;42.684;23.372;2023-04-06T08:29:28;94703.09;;;7.15;64.29
12626;BME280;6378;42.684;23.372;2023-04-06T08:31:53;94709.63;;;7.50;63.81
12626;BME280;6378;42.684;23.372;2023-04-06T08:34:19;94682.31;;;7.57;61.88
12626;BME280;6378;42.684;23.372;2023-04-06T08:36:44;94698.69;;;7.92;61.21
12626;BME280;6378;42.684;23.372;2023-04-06T08:39:11;94708.31;;;8.69;87.86
12626;BME280;6378;42.684;23.372;2023-04-06T08:41:36;94709.06;;;8.05;60.90
12626;BME280;6378;42.684;23.372;2023-04-06T08:44:03;94697.94;;;7.67;60.51
12626;BME280;6378;42.684;23.372;2023-04-06T08:46:29;94696.75;;;8.16;61.94
12626;BME280;6378;42.684;23.372;2023-04-06T08:48:59;94707.22;;;8.86;59.08
12626;BME280;6378;42.684;23.372;2023-04-06T08:51:26;94691.34;;;8.53;57.83
12626;BME280;6378;42.684;23.372;2023-04-06T08:53:53;94703.00;;;8.45;57.82
12626;BME280;6378;42.684;23.372;2023-04-06T08:56:21;94702.81;;;7.53;59.92
12626;BME280;6378;42.684;23.372;2023-04-06T08:58:47;94695.31;;;7.34;60.57
12626;BME280;6378;42.684;23.372;2023-04-06T09:01:14;94696.78;;;7.31;61.15
12626;BME280;6378;42.684;23.372;2023-04-06T09:03:43;94675.78;;;7.33;60.69
12626;BME280;6378;42.684;23.372;2023-04-06T09:06:11;94694.19;;;6.78;62.55
12626;BME280;6378;42.684;23.372;2023-04-06T09:08:39;94698.56;;;6.94;62.05
12626;BME280;6378;42.684;23.372;2023-04-06T09:11:05;94700.34;;;7.35;60.38
12626;BME280;6378;42.684;23.372;2023-04-06T09:13:31;94690.75;;;7.59;59.99
12626;BME280;6378;42.684;23.372;2023-04-06T09:16:04;94686.44;;;7.09;59.98
12626;BME280;6378;42.684;23.372;2023-04-06T09:18:33;94703.25;;;7.55;59.25
12626;BME280;6378;42.684;23.372;2023-04-06T09:21:04;94683.53;;;7.96;57.58
12626;BME280;6378;42.684;23.372;2023-04-06T09:23:29;94669.34;;;7.71;57.88
12626;BME280;6378;42.684;23.372;2023-04-06T09:26:12;94661.41;;;7.74;56.36
12626;BME280;6378;42.684;23.372;2023-04-06T09:28:53;94686.97;;;7.96;57.41
12626;BME280;6378;42.684;23.372;2023-04-06T09:31:26;94679.59;;;7.93;58.08
12626;BME280;6378;42.684;23.372;2023-04-06T09:33:52;94689.66;;;7.84;58.79
12626;BME280;6378;42.684;23.372;2023-04-06T09:36:18;94678.16;;;7.83;58.24
12626;BME280;6378;42.684;23.372;2023-04-06T09:38:57;94685.38;;;8.07;57.41
12626;BME280;6378;42.684;23.372;2023-04-06T09:41:28;94691.56;;;7.71;57.79
12626;BME280;6378;42.684;23.372;2023-04-06T09:44:10;94690.31;;;7.93;56.41
12626;BME280;6378;42.684;23.372;2023-04-06T09:46:38;94678.91;;;8.08;56.39
12626;BME280;6378;42.684;23.372;2023-04-06T09:49:05;94672.91;;;7.63;57.50
12626;BME280;6378;42.684;23.372;2023-04-06T09:51:46;94668.78;;;7.41;58.02
12626;BME280;6378;42.684;23.372;2023-04-06T09:54:18;94681.34;;;7.28;59.11
12626;BME280;6378;42.684;23.372;2023-04-06T09:59:16;94675.91;;;7.49;59.03
12626;BME280;6378;42.684;23.372;2023-04-06T10:01:46;94686.50;;;8.31;59.06
12626;BME280;6378;42.684;23.372;2023-04-06T10:04:28;94695.09;;;8.24;57.77
12626;BME280;6378;42.684;23.372;2023-04-06T10:06:55;94665.59;;;8.12;57.16
12626;BME280;6378;42.684;23.372;2023-04-06T10:09:25;94677.72;;;7.57;56.92
12626;BME280;6378;42.684;23.372;2023-04-06T10:11:54;94683.97;;;7.86;56.50
12626;BME280;6378;42.684;23.372;2023-04-06T10:14:20;94689.75;;;8.00;56.42
12626;BME280;6378;42.684;23.372;2023-04-06T10:16:48;94696.03;;;7.79;54.69
12626;BME280;6378;42.684;23.372;2023-04-06T10:19:21;94670.13;;;7.23;56.25
12626;BME280;6378;42.684;23.372;2023-04-06T10:21:50;94683.59;;;7.26;56.41
12626;BME280;6378;42.684;23.372;2023-04-06T10:24:19;94681.84;;;7.43;56.31
12626;BME280;6378;42.684;23.372;2023-04-06T10:26:57;94673.06;;;6.97;57.67
12626;BME280;6378;42.684;23.372;2023-04-06T10:29:23;94681.72;;;7.27;57.70
12626;BME280;6378;42.684;23.372;2023-04-06T10:31:49;94679.81;;;7.27;57.42
12626;BME280;6378;42.684;23.372;2023-04-06T10:34:15;94664.22;;;7.42;57.26
12626;BME280;6378;42.684;23.372;2023-04-06T10:36:40;94672.91;;;7.38;57.15
12626;BME280;6378;42.684;23.372;2023-04-06T10:39:06;94672.25;;;7.42;57.37
12626;BME280;6378;42.684;23.372;2023-04-06T10:41:42;94677.03;;;7.48;56.33
12626;BME280;6378;42.684;23.372;2023-04-06T10:44:17;94673.81;;;7.67;56.24
12626;BME280;6378;42.684;23.372;2023-04-06T10:46:52;94682.97;;;7.90;55.96
12626;BME280;6378;42.684;23.372;2023-04-06T10:49:19;94682.41;;;7.84;54.88
12626;BME280;6378;42.684;23.372;2023-04-06T10:51:44;94672.91;;;7.99;55.57
12626;BME280;6378;42.684;23.372;2023-04-06T10:54:11;94650.56;;;7.95;54.24
12626;BME280;6378;42.684;23.372;2023-04-06T10:56:37;94680.94;;;7.38;56.54
12626;BME280;6378;42.684;23.372;2023-04-06T10:59:05;94651.50;;;7.51;57.18
12626;BME280;6378;42.684;23.372;2023-04-06T11:01:31;94670.53;;;7.98;55.73
12626;BME280;6378;42.684;23.372;2023-04-06T11:03:57;94647.78;;;7.92;55.13
12626;BME280;6378;42.684;23.372;2023-04-06T11:06:27;94674.03;;;7.62;54.79
12626;BME280;6378;42.684;23.372;2023-04-06T11:08:55;94668.31;;;7.39;54.11
12626;BME280;6378;42.684;23.372;2023-04-06T11:11:22;94654.66;;;6.95;55.47
12626;BME280;6378;42.684;23.372;2023-04-06T11:14:00;94683.03;;;7.21;56.97
12626;BME280;6378;42.684;23.372;2023-04-06T11:16:29;94668.47;;;7.67;55.84
12626;BME280;6378;42.684;23.372;2023-04-06T11:19:03;94662.88;;;7.35;54.80
12626;BME280;6378;42.684;23.372;2023-04-06T11:21:33;94666.44;;;7.39;55.27
12626;BME280;6378;42.684;23.372;2023-04-06T11:26:54;94639.00;;;7.30;55.07
12626;BME280;6378;42.684;23.372;2023-04-06T11:29:24;94656.06;;;7.50;55.31
12626;BME280;6378;42.684;23.372;2023-04-06T11:31:51;94649.69;;;7.30;54.57
12626;BME280;6378;42.684;23.372;2023-04-06T11:36:44;94639.91;;;6.89;55.35
12626;BME280;6378;42.684;23.372;2023-04-06T11:39:10;94638.44;;;6.80;56.39
12626;BME280;6378;42.684;23.372;2023-04-06T11:41:36;94621.50;;;6.64;56.48
12626;BME280;6378;42.684;23.372;2023-04-06T11:44:01;94643.53;;;7.06;56.68
12626;BME280;6378;42.684;23.372;2023-04-06T11:46:30;94641.00;;;7.46;56.90
12626;BME280;6378;42.684;23.372;2023-04-06T11:48:59;94638.78;;;7.48;55.91
12626;BME280;6378;42.684;23.372;2023-04-06T11:51:26;94646.03;;;7.35;56.46
12626;BME280;6378;42.684;23.372;2023-04-06T11:53:52;94638.19;;;7.06;57.06
12626;BME280;6378;42.684;23.372;2023-04-06T11:56:25;94612.50;;;6.47;56.91
12626;BME280;6378;42.684;23.372;2023-04-06T11:58:51;94637.69;;;6.46;57.23
12626;BME280;6378;42.684;23.372;2023-04-06T12:01:17;94634.06;;;6.30;58.50
12626;BME280;6378;42.684;23.372;2023-04-06T12:03:42;94637.06;;;6.62;58.69
12626;BME280;6378;42.684;23.372;2023-04-06T12:06:07;94629.72;;;6.71;58.32
12626;BME280;6378;42.684;23.372;2023-04-06T12:08:33;94632.16;;;6.96;59.71
12626;BME280;6378;42.684;23.372;2023-04-06T12:10:58;94637.28;;;7.02;56.62
12626;BME280;6378;42.684;23.372;2023-04-06T12:13:24;94630.00;;;6.90;57.55
12626;BME280;6378;42.684;23.372;2023-04-06T12:15:50;94529.09;;;6.09;58.05
12626;BME280;6378;42.684;23.372;2023-04-06T12:18:15;94627.91;;;6.83;58.62
12626;BME280;6378;42.684;23.372;2023-04-06T12:20:40;94621.28;;;6.69;57.41
12626;BME280;6378;42.684;23.372;2023-04-06T12:23:06;94633.97;;;6.60;57.27
12626;BME280;6378;42.684;23.372;2023-04-06T12:25:32;94619.13;;;6.62;57.86
12626;BME280;6378;42.684;23.372;2023-04-06T12:27:57;94623.91;;;6.57;58.26
12626;BME280;6378;42.684;23.372;2023-04-06T12:30:24;94623.84;;;6.77;58.64
12626;BME280;6378;42.684;23.372;2023-04-06T12:32:50;94625.69;;;6.65;57.47
12626;BME280;6378;42.684;23.372;2023-04-06T12:35:16;94623.25;;;6.60;57.86
12626;BME280;6378;42.684;23.372;2023-04-06T12:37:41;94618.19;;;6.79;57.99
12626;BME280;6378;42.684;23.372;2023-04-06T12:40:07;94614.94;;;6.73;56.64
12626;BME280;6378;42.684;23.372;2023-04-06T12:42:36;94617.78;;;6.56;56.62
12626;BME280;6378;42.684;23.372;2023-04-06T12:45:01;94614.09;;;6.61;56.24
12626;BME280;6378;42.684;23.372;2023-04-06T12:47:27;94594.50;;;6.57;56.74
12626;BME280;6378;42.684;23.372;2023-04-06T12:49:53;94583.91;;;6.60;57.42
12626;BME280;6378;42.684;23.372;2023-04-06T12:52:19;94609.69;;;6.77;56.76
12626;BME280;6378;42.684;23.372;2023-04-06T12:54:44;94609.13;;;6.71;56.50
12626;BME280;6378;42.684;23.372;2023-04-06T12:57:10;94606.91;;;6.73;55.83
12626;BME280;6378;42.684;23.372;2023-04-06T12:59:35;94602.16;;;6.91;56.33
12626;BME280;6378;42.684;23.372;2023-04-06T13:02:05;94604.94;;;6.82;56.51
12626;BME280;6378;42.684;23.372;2023-04-06T13:04:40;94605.56;;;6.79;56.78
12626;BME280;6378;42.684;23.372;2023-04-06T13:07:06;94598.25;;;6.88;56.89
12626;BME280;6378;42.684;23.372;2023-04-06T13:09:32;94597.56;;;6.91;56.23